Time;durP1;ratioP1;P1;durP2;ratioP2;P2;SDS_P1;SDS_P2;PMS_P1;PMS_P2;Temp;Humidity;BMP_temperature;BMP_pressure;BME280_temperature;BME280_humidity;BME280_pressure;Samples;Min_cycle;Max_cycle;Signal;HPM_P1;HPM_P2
2024/01/29 00:01:29;;;;;;;10.73;6.80;;;-1.80;99.90;;;;;;5072738;28;20055;-79
2024/01/29 00:03:58;;;;;;;7.72;5.88;;;-1.80;99.90;;;;;;5063888;28;20033;-78
2024/01/29 00:06:24;;;;;;;10.02;7.28;;;-1.90;99.90;;;;;;5072062;28;20035;-78
2024/01/29 00:08:52;;;;;;;10.52;6.90;;;-1.80;99.90;;;;;;5069180;28;20052;-78
2024/01/29 00:11:19;;;;;;;9.38;6.40;;;-1.80;99.90;;;;;;5069365;28;20025;-79
2024/01/29 00:13:46;;;;;;;8.23;6.32;;;-1.80;99.90;;;;;;5061752;28;20081;-79
2024/01/29 00:16:12;;;;;;;6.97;5.43;;;-1.80;99.90;;;;;;5071727;28;20046;-79
2024/01/29 00:18:38;;;;;;;12.43;7.22;;;-1.80;99.90;;;;;;5072222;28;20029;-78
2024/01/29 00:21:04;;;;;;;13.35;6.30;;;-1.80;99.90;;;;;;5059186;28;20036;-79
2024/01/29 00:23:30;;;;;;;8.77;5.78;;;-1.80;99.90;;;;;;5072232;28;20024;-78
2024/01/29 00:25:56;;;;;;;9.10;7.30;;;-1.80;99.90;;;;;;5071520;28;20378;-79
2024/01/29 00:28:22;;;;;;;12.23;7.75;;;-1.80;99.90;;;;;;5071600;28;20027;-78
2024/01/29 00:30:48;;;;;;;11.70;7.50;;;-1.80;99.90;;;;;;5071846;28;20048;-78
2024/01/29 00:33:14;;;;;;;13.80;8.82;;;-1.80;99.90;;;;;;5070294;28;20051;-77
2024/01/29 00:35:40;;;;;;;11.07;7.13;;;-1.70;99.90;;;;;;5071794;28;20056;-78
2024/01/29 00:38:06;;;;;;;9.63;7.28;;;-1.70;99.90;;;;;;5075756;28;20432;-78
2024/01/29 00:40:33;;;;;;;10.77;7.50;;;-1.70;99.90;;;;;;5078511;28;20038;-77
2024/01/29 00:43:02;;;;;;;9.88;7.40;;;-1.70;99.90;;;;;;5080430;28;20024;-78
2024/01/29 00:45:29;;;;;;;11.70;7.13;;;-1.80;99.90;;;;;;5066372;28;20024;-79
2024/01/29 00:47:55;;;;;;;10.27;7.43;;;-1.80;99.80;;;;;;5068452;28;20052;-79
2024/01/29 00:50:21;;;;;;;9.15;6.40;;;-1.90;99.90;;;;;;5074192;28;20031;-81
2024/01/29 00:52:47;;;;;;;11.63;6.70;;;-2.00;99.90;;;;;;5075762;28;20023;-78
2024/01/29 00:55:13;;;;;;;12.70;7.15;;;-2.10;99.90;;;;;;5075627;28;20486;-79
2024/01/29 00:57:39;;;;;;;12.55;8.63;;;-2.00;99.90;;;;;;5075097;28;20050;-80
2024/01/29 01:00:10;;;;;;;12.07;7.85;;;-2.00;99.90;;;;;;5073144;28;20032;-79
2024/01/29 01:02:36;;;;;;;10.30;6.85;;;-2.00;99.90;;;;;;5069352;28;20074;-80
2024/01/29 01:05:02;;;;;;;10.90;6.90;;;-1.90;99.90;;;;;;5075439;28;20091;-80
2024/01/29 01:07:28;;;;;;;11.50;7.18;;;-1.90;99.90;;;;;;5075659;28;20021;-79
2024/01/29 01:09:54;;;;;;;6.85;5.32;;;-1.90;99.90;;;;;;5075224;28;20035;-78
2024/01/29 01:12:20;;;;;;;11.80;6.47;;;-1.90;99.90;;;;;;5075150;28;20024;-79
2024/01/29 01:14:46;;;;;;;10.63;6.72;;;-2.00;99.90;;;;;;5075476;28;20470;-79
2024/01/29 01:17:12;;;;;;;12.32;7.38;;;-2.00;99.90;;;;;;5073648;28;20025;-79
2024/01/29 01:19:37;;;;;;;12.32;7.57;;;-2.00;99.90;;;;;;5075836;28;20020;-79
2024/01/29 01:22:03;;;;;;;10.00;6.93;;;-2.10;99.90;;;;;;5075179;28;20035;-79
2024/01/29 01:24:29;;;;;;;12.13;7.57;;;-2.10;99.90;;;;;;5073631;28;20033;-79
2024/01/29 01:26:55;;;;;;;9.35;6.63;;;-2.20;99.90;;;;;;5075169;28;20097;-79
2024/01/29 01:29:21;;;;;;;9.95;7.38;;;-2.10;99.90;;;;;;5074571;28;20485;-78
2024/01/29 01:31:47;;;;;;;11.77;8.07;;;-2.00;99.90;;;;;;5077940;28;20441;-79
2024/01/29 01:34:13;;;;;;;11.32;7.50;;;-1.90;99.90;;;;;;5076339;28;20025;-80
2024/01/29 01:36:39;;;;;;;10.68;6.63;;;-1.90;99.90;;;;;;5075736;28;20035;-79
2024/01/29 01:39:04;;;;;;;9.65;6.15;;;-1.90;99.90;;;;;;5074924;28;20438;-80
2024/01/29 01:41:30;;;;;;;9.05;6.03;;;-2.00;99.90;;;;;;5074565;28;20056;-79
2024/01/29 01:43:56;;;;;;;8.15;6.72;;;-2.00;99.90;;;;;;5074645;28;20028;-79
2024/01/29 01:46:23;;;;;;;9.07;5.93;;;-2.00;99.90;;;;;;5069105;28;20051;-80
2024/01/29 01:48:51;;;;;;;12.00;7.80;;;-2.00;99.90;;;;;;5068035;28;20009;-80
2024/01/29 01:51:18;;;;;;;12.80;8.00;;;-2.00;99.90;;;;;;5074658;28;20470;-80
2024/01/29 01:53:45;;;;;;;8.68;6.40;;;-2.00;99.90;;;;;;5074513;28;20036;-79
2024/01/29 01:56:13;;;;;;;11.05;7.03;;;-2.00;99.90;;;;;;5074752;28;20112;-80
2024/01/29 01:58:42;;;;;;;10.45;7.47;;;-2.00;99.90;;;;;;5073130;28;20025;-80
2024/01/29 02:01:08;;;;;;;8.57;6.35;;;-2.00;99.90;;;;;;5067184;28;20024;-79
2024/01/29 02:03:34;;;;;;;10.35;6.82;;;-2.00;99.90;;;;;;5073771;28;20374;-79
2024/01/29 02:06:00;;;;;;;9.45;6.65;;;-2.00;99.90;;;;;;5074641;28;20115;-78
2024/01/29 02:08:26;;;;;;;9.45;7.63;;;-2.00;99.90;;;;;;5073965;28;20121;-79
2024/01/29 02:10:56;;;;;;;9.65;6.68;;;-2.10;99.90;;;;;;5074370;28;20029;-79
2024/01/29 02:13:22;;;;;;;11.20;7.13;;;-2.10;99.90;;;;;;5072946;28;20021;-78
2024/01/29 02:15:48;;;;;;;9.25;6.45;;;-2.10;99.90;;;;;;5073897;28;20420;-79
2024/01/29 02:18:14;;;;;;;16.08;7.88;;;-2.10;99.90;;;;;;5070200;28;20040;-79
2024/01/29 02:20:40;;;;;;;11.57;7.03;;;-2.10;99.90;;;;;;5068981;28;20024;-78
2024/01/29 02:23:05;;;;;;;9.65;6.22;;;-2.00;99.90;;;;;;5061691;28;20039;-78
2024/01/29 02:25:31;;;;;;;9.55;6.25;;;-2.00;99.90;;;;;;5068745;28;20043;-79
2024/01/29 02:27:57;;;;;;;10.05;6.53;;;-2.10;99.90;;;;;;5071290;28;20025;-77
2024/01/29 02:30:23;;;;;;;10.73;6.97;;;-2.00;99.90;;;;;;5073663;28;20032;-79
2024/01/29 02:32:49;;;;;;;10.38;6.00;;;-2.10;99.90;;;;;;5073385;28;20378;-80
2024/01/29 02:35:15;;;;;;;8.52;6.95;;;-2.10;99.90;;;;;;5073505;28;20095;-79
2024/01/29 02:37:41;;;;;;;12.13;6.97;;;-2.10;99.90;;;;;;5073596;28;20020;-79
2024/01/29 02:40:07;;;;;;;10.13;6.55;;;-2.00;99.90;;;;;;5070101;28;20077;-79
2024/01/29 02:42:33;;;;;;;12.70;6.97;;;-2.00;99.90;;;;;;5073481;28;20021;-78
2024/01/29 02:45:00;;;;;;;10.20;5.85;;;-2.00;99.90;;;;;;5073376;28;20272;-77
2024/01/29 02:47:26;;;;;;;10.02;6.63;;;-2.10;99.90;;;;;;5071766;28;20061;-79
2024/01/29 02:49:51;;;;;;;10.75;6.80;;;-2.10;99.90;;;;;;5073384;28;20033;-79
2024/01/29 02:52:19;;;;;;;8.75;6.65;;;-2.10;99.90;;;;;;5069522;28;20021;-79
2024/01/29 02:54:45;;;;;;;8.45;6.72;;;-2.10;99.90;;;;;;5073478;28;20016;-78
2024/01/29 02:57:10;;;;;;;9.43;6.07;;;-2.00;99.90;;;;;;5072053;28;20052;-78
2024/01/29 02:59:36;;;;;;;10.43;6.90;;;-2.00;99.90;;;;;;5068194;28;20028;-78
2024/01/29 03:02:03;;;;;;;11.55;6.47;;;-2.00;99.90;;;;;;5073460;28;20436;-79
2024/01/29 03:04:29;;;;;;;10.90;6.07;;;-2.00;99.90;;;;;;5073664;28;20028;-78
2024/01/29 03:06:55;;;;;;;11.10;7.10;;;-2.10;99.90;;;;;;5073409;28;20024;-77
2024/01/29 03:09:21;;;;;;;11.80;7.78;;;-2.00;99.90;;;;;;5074306;28;20351;-78
2024/01/29 03:11:47;;;;;;;10.05;7.28;;;-2.00;99.90;;;;;;5076902;28;20482;-79
2024/01/29 03:14:13;;;;;;;11.70;6.95;;;-2.10;99.90;;;;;;5077691;28;20020;-77
2024/01/29 03:16:38;;;;;;;13.55;7.03;;;-2.10;99.90;;;;;;5078090;28;20076;-79
2024/01/29 03:19:04;;;;;;;11.00;7.75;;;-2.10;99.90;;;;;;5073047;28;20116;-78
2024/01/29 03:21:30;;;;;;;10.65;7.28;;;-2.10;99.90;;;;;;5070065;28;20039;-77
2024/01/29 03:23:56;;;;;;;8.90;6.18;;;-2.10;99.90;;;;;;5067768;28;20021;-77
2024/01/29 03:26:23;;;;;;;9.75;6.85;;;-2.10;99.90;;;;;;5069854;28;20033;-79
2024/01/29 03:28:49;;;;;;;10.65;7.35;;;-2.10;99.90;;;;;;5073437;28;20069;-77
2024/01/29 03:31:18;;;;;;;9.93;5.75;;;-2.20;99.90;;;;;;5073557;28;20408;-81
2024/01/29 03:33:44;;;;;;;9.75;6.75;;;-2.20;99.90;;;;;;5077003;28;20047;-78
2024/01/29 03:36:11;;;;;;;12.38;6.82;;;-2.20;99.90;;;;;;5077244;28;20024;-79
2024/01/29 03:38:37;;;;;;;9.02;5.90;;;-2.20;99.90;;;;;;5067246;28;20021;-79
2024/01/29 03:41:04;;;;;;;11.43;6.80;;;-2.20;99.90;;;;;;5072792;28;20028;-78
2024/01/29 03:43:30;;;;;;;8.38;6.10;;;-2.30;99.90;;;;;;5072717;28;20025;-78
2024/01/29 03:45:56;;;;;;;11.55;6.63;;;-2.20;99.90;;;;;;5073398;28;20062;-79
2024/01/29 03:48:26;;;;;;;11.68;7.03;;;-2.20;99.90;;;;;;5079207;28;20461;-80
2024/01/29 03:50:52;;;;;;;11.43;7.18;;;-2.20;99.90;;;;;;5066035;28;20106;-79
2024/01/29 03:53:18;;;;;;;10.82;6.38;;;-2.20;99.90;;;;;;5066557;28;20027;-79
2024/01/29 03:55:44;;;;;;;13.15;7.55;;;-2.10;99.90;;;;;;5080457;28;20441;-80
2024/01/29 03:58:10;;;;;;;10.93;6.07;;;-2.10;99.90;;;;;;5077042;28;20028;-78
2024/01/29 04:00:36;;;;;;;10.68;6.85;;;-2.10;99.90;;;;;;5072931;28;20393;-79
2024/01/29 04:03:04;;;;;;;10.45;7.00;;;-2.10;99.90;;;;;;5072188;28;20523;-78
2024/01/29 04:05:29;;;;;;;9.35;6.18;;;-2.10;99.90;;;;;;5070875;28;20035;-78
2024/01/29 04:07:55;;;;;;;9.95;6.78;;;-2.10;99.90;;;;;;5072162;28;20044;-78
2024/01/29 04:10:21;;;;;;;10.82;7.35;;;-2.10;99.90;;;;;;5072024;28;20374;-78
2024/01/29 04:12:47;;;;;;;11.40;8.32;;;-2.10;99.90;;;;;;5071329;28;20036;-78
2024/01/29 04:15:14;;;;;;;11.52;7.38;;;-2.10;99.90;;;;;;5069179;28;20092;-77
2024/01/29 04:17:40;;;;;;;14.27;8.13;;;-2.10;99.90;;;;;;5071881;28;20032;-77
2024/01/29 04:20:06;;;;;;;9.10;6.55;;;-2.00;99.90;;;;;;5072122;28;20032;-78
2024/01/29 04:22:33;;;;;;;10.27;6.97;;;-2.00;99.90;;;;;;5072997;28;20054;-78
2024/01/29 04:25:06;;;;;;;10.70;6.50;;;-2.00;99.90;;;;;;5071412;28;20032;-78
2024/01/29 04:27:32;;;;;;;10.93;7.25;;;-2.00;99.90;;;;;;5061845;28;20074;-78
2024/01/29 04:29:58;;;;;;;13.05;7.28;;;-2.00;99.90;;;;;;5071985;28;20036;-80
2024/01/29 04:32:24;;;;;;;13.18;7.68;;;-2.00;99.90;;;;;;5071742;28;20389;-79
2024/01/29 04:34:50;;;;;;;10.40;6.22;;;-2.00;99.90;;;;;;5071897;28;20040;-79
2024/01/29 04:37:16;;;;;;;9.57;6.70;;;-2.00;99.90;;;;;;5071125;28;20025;-80
2024/01/29 04:39:41;;;;;;;9.82;6.40;;;-2.10;99.90;;;;;;5071632;28;20488;-79
2024/01/29 04:42:07;;;;;;;11.05;6.35;;;-2.00;99.90;;;;;;5076759;28;20028;-78
2024/01/29 04:44:33;;;;;;;9.70;6.00;;;-2.00;99.90;;;;;;5072493;28;20379;-78
2024/01/29 04:47:00;;;;;;;9.57;6.38;;;-2.00;99.90;;;;;;5074887;28;20024;-79
2024/01/29 04:49:26;;;;;;;13.20;7.20;;;-2.00;99.90;;;;;;5070664;28;20028;-79
2024/01/29 04:51:52;;;;;;;8.90;6.43;;;-2.00;99.90;;;;;;5073370;28;20111;-78
2024/01/29 04:54:18;;;;;;;11.18;7.22;;;-1.90;99.90;;;;;;5066120;28;20102;-78
2024/01/29 04:56:44;;;;;;;12.10;6.57;;;-1.90;99.90;;;;;;5067615;28;20028;-79
2024/01/29 04:59:10;;;;;;;12.80;6.65;;;-1.90;99.90;;;;;;5071610;28;20021;-77
2024/01/29 05:01:36;;;;;;;9.45;7.00;;;-2.00;99.90;;;;;;5070257;28;20036;-80
2024/01/29 05:04:02;;;;;;;11.35;6.57;;;-1.90;99.90;;;;;;5071567;28;20025;-79
2024/01/29 05:06:27;;;;;;;10.52;6.68;;;-1.90;99.90;;;;;;5071934;28;20027;-77
2024/01/29 05:08:55;;;;;;;9.40;6.40;;;-1.90;99.90;;;;;;5071519;28;20087;-79
2024/01/29 05:11:21;;;;;;;10.25;6.22;;;-1.90;99.90;;;;;;5066791;28;20033;-80
2024/01/29 05:13:46;;;;;;;11.68;7.32;;;-1.90;99.90;;;;;;5060850;28;20031;-78
2024/01/29 05:16:15;;;;;;;14.77;7.50;;;-1.90;99.90;;;;;;5067822;28;20021;-78
2024/01/29 05:18:42;;;;;;;11.50;7.90;;;-1.90;99.90;;;;;;5059512;28;20416;-81
2024/01/29 05:21:08;;;;;;;12.85;7.15;;;-1.80;99.90;;;;;;5048858;28;20056;-81
2024/01/29 05:23:34;;;;;;;10.95;6.63;;;-1.80;99.90;;;;;;5073033;28;20032;-80
2024/01/29 05:26:00;;;;;;;11.85;7.57;;;-1.70;99.90;;;;;;5075991;28;20381;-82
2024/01/29 05:28:25;;;;;;;9.40;6.43;;;-1.70;99.90;;;;;;5075310;28;20056;-81
2024/01/29 05:30:52;;;;;;;9.93;6.95;;;-1.80;99.90;;;;;;5083071;28;20039;-81
2024/01/29 05:33:18;;;;;;;11.93;6.88;;;-1.80;99.90;;;;;;5076396;28;20073;-81
2024/01/29 05:35:44;;;;;;;12.15;6.40;;;-1.90;99.90;;;;;;5075811;28;20111;-82
2024/01/29 05:38:10;;;;;;;14.63;6.85;;;-1.90;99.90;;;;;;5076465;28;20028;-81
2024/01/29 05:40:35;;;;;;;14.20;9.27;;;-1.90;99.90;;;;;;5076683;28;20020;-81
2024/01/29 05:43:01;;;;;;;12.27;7.88;;;-1.90;99.90;;;;;;5077414;28;20598;-81
2024/01/29 05:45:27;;;;;;;12.30;7.60;;;-1.80;99.90;;;;;;5080224;28;20046;-80
2024/01/29 05:47:53;;;;;;;13.05;7.80;;;-1.80;99.90;;;;;;5076821;28;20016;-81
2024/01/29 05:50:19;;;;;;;14.07;7.45;;;-1.80;99.90;;;;;;5075185;28;20036;-80
2024/01/29 05:52:46;;;;;;;11.52;7.30;;;-1.90;99.90;;;;;;5071717;28;20020;-83
2024/01/29 05:55:12;;;;;;;;;;;-1.80;99.90;;;;;;5075967;28;20028;-83
2024/01/29 05:57:38;;;;;;;10.00;6.15;;;-1.80;99.90;;;;;;5063780;28;19915;-83
2024/01/29 06:00:09;;;;;;;12.30;6.75;;;-1.80;99.90;;;;;;5073406;28;20025;-81
2024/01/29 06:02:39;;;;;;;10.98;5.65;;;-1.80;99.90;;;;;;5066367;28;20024;-79
2024/01/29 06:05:05;;;;;;;11.98;7.38;;;-1.80;99.90;;;;;;5073966;28;20044;-80
2024/01/29 06:07:31;;;;;;;14.82;8.73;;;-1.80;99.90;;;;;;5074179;28;20080;-78
2024/01/29 06:09:57;;;;;;;12.45;7.45;;;-1.70;99.90;;;;;;5073837;28;20119;-79
2024/01/29 06:12:23;;;;;;;11.75;6.90;;;-1.70;99.90;;;;;;5068655;28;20493;-80
2024/01/29 06:14:49;;;;;;;11.43;7.28;;;-1.60;99.90;;;;;;5072672;28;20040;-78
2024/01/29 06:17:15;;;;;;;12.48;7.75;;;-1.70;99.90;;;;;;5070184;28;20020;-79
2024/01/29 06:19:41;;;;;;;12.07;8.15;;;-1.70;99.90;;;;;;5075313;28;20057;-79
2024/01/29 06:22:07;;;;;;;11.30;7.22;;;-1.60;99.90;;;;;;5061442;28;20033;-82
2024/01/29 06:24:33;;;;;;;12.57;6.70;;;-1.60;99.90;;;;;;5074425;28;20024;-80
2024/01/29 06:26:59;;;;;;;15.75;7.78;;;-1.60;99.90;;;;;;5073745;28;20017;-80
2024/01/29 06:29:25;;;;;;;16.40;7.75;;;-1.60;99.90;;;;;;5068272;28;20044;-79
2024/01/29 06:31:52;;;;;;;10.50;7.30;;;-1.60;99.90;;;;;;5068586;28;20052;-78
2024/01/29 06:34:18;;;;;;;11.40;6.72;;;-1.60;99.90;;;;;;5073253;28;20021;-79
2024/01/29 06:36:44;;;;;;;13.88;7.28;;;-1.60;99.90;;;;;;5073333;28;20030;-82
2024/01/29 06:39:11;;;;;;;13.13;7.78;;;-1.60;99.90;;;;;;5072840;28;20021;-80
2024/01/29 06:41:37;;;;;;;9.48;6.97;;;-1.60;99.90;;;;;;5073770;28;20029;-81
2024/01/29 06:44:03;;;;;;;11.00;7.35;;;-1.60;99.90;;;;;;5074432;28;20463;-80
2024/01/29 06:46:28;;;;;;;13.38;7.15;;;-1.50;99.90;;;;;;5069651;28;20392;-80
2024/01/29 06:48:54;;;;;;;12.05;6.97;;;-1.40;99.90;;;;;;5068270;28;20012;-80
2024/01/29 06:51:21;;;;;;;11.85;7.82;;;-1.40;99.90;;;;;;5073567;28;20501;-79
2024/01/29 06:53:47;;;;;;;13.40;7.32;;;-1.40;99.90;;;;;;5067180;28;20021;-81
2024/01/29 06:56:13;;;;;;;11.35;7.78;;;-1.40;99.90;;;;;;5068330;28;20044;-80
2024/01/29 06:58:39;;;;;;;11.20;6.80;;;-1.30;99.90;;;;;;5071866;28;20238;-78
2024/01/29 07:01:05;;;;;;;9.25;6.03;;;-1.30;99.90;;;;;;5073613;28;20100;-78
2024/01/29 07:03:41;;;;;;;16.55;8.05;;;-1.20;99.90;;;;;;5073644;28;20020;-80
2024/01/29 07:06:07;;;;;;;13.35;7.68;;;-1.20;99.90;;;;;;5077169;28;20542;-85
2024/01/29 07:08:33;;;;;;;10.75;7.55;;;-1.20;99.90;;;;;;5092307;28;20040;-81
2024/01/29 07:10:59;;;;;;;13.18;6.75;;;-1.20;99.90;;;;;;5088970;28;20032;-81
2024/01/29 07:13:25;;;;;;;10.57;6.40;;;-1.20;99.90;;;;;;5080353;28;20500;-81
2024/01/29 07:15:51;;;;;;;12.13;6.63;;;-1.20;99.90;;;;;;5074271;28;20069;-83
2024/01/29 07:18:18;;;;;;;10.90;6.72;;;-1.30;99.90;;;;;;5078019;28;20122;-81
2024/01/29 07:20:45;;;;;;;11.95;7.50;;;-1.40;99.90;;;;;;5067444;28;20016;-80
2024/01/29 07:23:11;;;;;;;11.73;7.20;;;-1.50;99.90;;;;;;5068807;28;20028;-81
2024/01/29 07:25:40;;;;;;;12.10;8.35;;;-1.40;99.90;;;;;;5068365;28;20040;-81
2024/01/29 07:28:08;;;;;;;10.52;7.05;;;-1.30;99.90;;;;;;5064088;28;20029;-81
2024/01/29 07:30:34;;;;;;;11.52;7.28;;;-1.20;99.90;;;;;;5062234;28;20485;-81
2024/01/29 07:33:01;;;;;;;11.05;7.35;;;-1.30;99.90;;;;;;5062821;28;20028;-80
2024/01/29 07:35:27;;;;;;;12.65;7.75;;;-1.30;99.90;;;;;;5072445;28;20028;-81
2024/01/29 07:37:53;;;;;;;10.27;6.43;;;-1.30;99.90;;;;;;5071228;28;20448;-80
2024/01/29 07:40:19;;;;;;;11.85;7.55;;;-1.30;99.90;;;;;;5067822;28;20244;-81
2024/01/29 07:42:50;;;;;;;12.40;8.60;;;-1.20;99.90;;;;;;5068985;28;20388;-80
2024/01/29 07:45:17;;;;;;;16.33;7.95;;;-1.20;99.90;;;;;;5072393;28;20107;-80
2024/01/29 07:47:42;;;;;;;11.18;7.57;;;-1.20;99.90;;;;;;5070519;28;20024;-82
2024/01/29 07:50:08;;;;;;;13.30;8.20;;;-1.20;99.90;;;;;;5072325;28;20033;-79
2024/01/29 07:52:34;;;;;;;13.80;8.77;;;-1.10;99.90;;;;;;5073381;28;20078;-81
2024/01/29 07:55:00;;;;;;;14.27;8.52;;;-1.10;99.90;;;;;;5072629;28;20542;-80
2024/01/29 07:57:26;;;;;;;13.88;8.05;;;-1.10;99.90;;;;;;5072480;28;20021;-80
2024/01/29 07:59:52;;;;;;;17.77;8.93;;;-1.00;99.90;;;;;;5065505;28;20428;-81
2024/01/29 08:02:18;;;;;;;14.13;7.15;;;-0.90;99.90;;;;;;5070457;28;20099;-83
2024/01/29 08:04:43;;;;;;;13.18;8.48;;;-1.00;99.90;;;;;;5053837;28;20032;-82
2024/01/29 08:07:09;;;;;;;18.45;9.73;;;-1.00;99.90;;;;;;5067587;28;20028;-82
2024/01/29 08:09:35;;;;;;;13.75;9.18;;;-1.00;99.90;;;;;;5064247;28;20090;-81
2024/01/29 08:12:01;;;;;;;14.40;8.93;;;-1.00;99.90;;;;;;5062923;28;20025;-83
2024/01/29 08:14:27;;;;;;;15.93;9.63;;;-1.00;99.90;;;;;;5069415;28;20028;-83
2024/01/29 08:16:53;;;;;;;15.05;8.48;;;-1.10;99.90;;;;;;5072397;28;20401;-83
2024/01/29 08:19:19;;;;;;;11.68;7.75;;;-1.00;99.90;;;;;;5072383;28;20225;-82
2024/01/29 08:21:45;;;;;;;12.65;7.80;;;-1.00;99.90;;;;;;5072421;28;20040;-81
2024/01/29 08:24:11;;;;;;;12.50;8.27;;;-1.10;99.90;;;;;;5073116;28;20101;-80
2024/01/29 08:26:37;;;;;;;13.25;9.48;;;-1.10;99.90;;;;;;5075624;28;20059;-82
2024/01/29 08:29:03;;;;;;;15.38;9.98;;;-1.10;99.90;;;;;;5072784;28;20090;-79
2024/01/29 08:31:30;;;;;;;16.38;9.15;;;-1.00;99.90;;;;;;5075857;28;20446;-81
2024/01/29 08:33:56;;;;;;;;;;;-1.00;99.90;;;;;;5075130;28;20017;-80
2024/01/29 08:36:22;;;;;;;10.98;6.53;;;-1.00;99.90;;;;;;5071487;28;19930;-80
2024/01/29 08:38:48;;;;;;;11.90;7.57;;;-1.00;99.90;;;;;;5071955;28;20021;-80
2024/01/29 08:41:15;;;;;;;17.50;10.77;;;-1.20;99.90;;;;;;5071965;28;20020;-82
2024/01/29 08:43:41;;;;;;;18.17;10.25;;;-1.10;99.90;;;;;;5071622;28;20108;-82
2024/01/29 08:46:07;;;;;;;20.13;10.23;;;-1.10;99.90;;;;;;5071902;28;20099;-82
2024/01/29 08:48:33;;;;;;;17.77;9.65;;;-1.10;99.90;;;;;;5073535;28;20060;-80
2024/01/29 08:50:59;;;;;;;14.40;8.52;;;-1.10;99.90;;;;;;5074418;28;20466;-82
2024/01/29 08:53:25;;;;;;;17.02;10.75;;;-1.20;99.90;;;;;;5071473;28;20032;-80
2024/01/29 08:55:51;;;;;;;15.10;9.00;;;-1.20;99.90;;;;;;5070943;28;20025;-80
2024/01/29 08:58:18;;;;;;;18.30;10.88;;;-1.30;99.90;;;;;;5073558;28;20023;-81
2024/01/29 09:00:44;;;;;;;16.77;11.20;;;-1.20;99.90;;;;;;5078395;28;20020;-81
2024/01/29 09:03:09;;;;;;;18.98;10.90;;;-1.30;99.90;;;;;;5077439;28;20024;-82
2024/01/29 09:05:36;;;;;;;17.02;12.10;;;-1.30;99.90;;;;;;5075775;28;20025;-82
2024/01/29 09:08:02;;;;;;;19.75;11.50;;;-1.20;99.90;;;;;;5075283;28;20049;-79
2024/01/29 09:10:28;;;;;;;18.58;11.02;;;-1.10;99.90;;;;;;5075457;28;20085;-83
2024/01/29 09:12:54;;;;;;;19.65;10.93;;;-1.20;99.90;;;;;;5075626;28;20027;-81
2024/01/29 09:15:19;;;;;;;14.63;10.32;;;-1.20;99.90;;;;;;5074330;28;20050;-81
2024/01/29 09:17:48;;;;;;;15.55;9.88;;;-1.20;99.90;;;;;;5075868;28;20031;-83
2024/01/29 09:20:14;;;;;;;14.73;10.48;;;-1.30;99.90;;;;;;5073994;28;20036;-81
2024/01/29 09:22:41;;;;;;;18.45;11.10;;;-1.20;99.90;;;;;;5073059;28;20021;-82
2024/01/29 09:25:07;;;;;;;14.32;9.35;;;-1.30;99.90;;;;;;5069874;28;20021;-80
2024/01/29 09:27:34;;;;;;;17.45;9.55;;;-1.40;99.90;;;;;;5073917;28;20486;-80
2024/01/29 09:29:59;;;;;;;18.45;10.50;;;-1.40;99.90;;;;;;5074982;28;20465;-81
2024/01/29 09:32:26;;;;;;;16.55;10.55;;;-1.40;99.90;;;;;;5070254;28;20021;-79
2024/01/29 09:34:52;;;;;;;12.35;8.45;;;-1.40;99.90;;;;;;5075233;28;20044;-80
2024/01/29 09:37:20;;;;;;;18.23;9.75;;;-1.40;99.90;;;;;;5076471;28;20070;-80
2024/01/29 09:39:47;;;;;;;20.27;8.85;;;-1.40;99.90;;;;;;5075203;28;20017;-81
2024/01/29 09:42:24;;;;;;;13.37;8.00;;;-1.40;99.90;;;;;;5072436;28;20424;-82
2024/01/29 09:44:54;;;;;;;12.90;8.73;;;-1.50;99.90;;;;;;5075319;28;20017;-81
2024/01/29 09:47:21;;;;;;;14.75;9.13;;;-1.50;99.90;;;;;;5075090;28;20021;-82
2024/01/29 09:49:47;;;;;;;11.85;6.95;;;-1.50;99.90;;;;;;5065433;28;20086;-84
2024/01/29 09:52:13;;;;;;;12.80;7.10;;;-1.50;99.90;;;;;;5074839;28;20048;-80
2024/01/29 09:54:46;;;;;;;11.98;6.65;;;-1.60;99.90;;;;;;5075285;28;20382;-85
2024/01/29 09:57:12;;;;;;;12.50;7.90;;;-1.70;99.90;;;;;;5075953;28;20028;-80
2024/01/29 09:59:40;;;;;;;10.50;6.50;;;-1.80;99.90;;;;;;5076191;28;20070;-82
2024/01/29 10:02:08;;;;;;;11.45;6.97;;;-1.70;99.90;;;;;;5075402;28;20061;-86
2024/01/29 10:04:34;;;;;;;9.70;6.00;;;-1.70;99.90;;;;;;5076068;28;20119;-80
2024/01/29 10:07:00;;;;;;;9.98;6.78;;;-1.80;99.90;;;;;;5062716;28;20103;-81
2024/01/29 10:09:26;;;;;;;13.07;6.25;;;-1.80;99.90;;;;;;5075917;28;20355;-83
2024/01/29 10:11:52;;;;;;;13.00;8.15;;;-1.80;99.90;;;;;;5072846;28;20058;-81
2024/01/29 10:14:18;;;;;;;11.45;8.32;;;-1.70;99.90;;;;;;5078291;28;20038;-81
2024/01/29 10:16:47;;;;;;;10.93;6.60;;;-1.70;99.90;;;;;;5066201;28;20048;-81
2024/01/29 10:19:14;;;;;;;15.05;9.18;;;-1.70;99.90;;;;;;5076765;28;20024;-80
2024/01/29 10:21:46;;;;;;;15.27;9.85;;;-1.60;99.90;;;;;;5077461;28;20025;-80
2024/01/29 10:24:14;;;;;;;13.15;8.93;;;-1.60;99.90;;;;;;5078246;28;20040;-81
2024/01/29 10:26:42;;;;;;;13.70;10.05;;;-1.60;99.90;;;;;;5074787;28;20451;-82
2024/01/29 10:29:09;;;;;;;14.15;8.57;;;-1.60;99.90;;;;;;5069588;28;20013;-81
2024/01/29 10:31:35;;;;;;;13.43;9.15;;;-1.50;99.90;;;;;;5074970;28;20036;-82
2024/01/29 10:34:03;;;;;;;14.45;8.63;;;-1.50;99.90;;;;;;5074292;28;20429;-82
2024/01/29 10:36:29;;;;;;;12.45;7.43;;;-1.50;99.90;;;;;;5075072;28;20036;-81
2024/01/29 10:38:57;;;;;;;16.27;8.40;;;-1.50;99.90;;;;;;5073857;28;20043;-80
2024/01/29 10:41:25;;;;;;;14.57;8.52;;;-1.60;99.90;;;;;;5074559;28;20017;-80
2024/01/29 10:43:51;;;;;;;7.90;5.90;;;-1.60;99.90;;;;;;5074802;28;20028;-80
2024/01/29 10:46:22;;;;;;;11.93;7.80;;;-1.60;99.90;;;;;;5073338;28;20549;-83
2024/01/29 10:48:50;;;;;;;13.75;7.45;;;-1.70;99.90;;;;;;5069098;28;20020;-80
2024/01/29 10:51:16;;;;;;;;;;;-1.80;99.90;;;;;;5074603;28;20029;-80
2024/01/29 10:53:44;;;;;;;12.27;7.47;;;-1.90;99.90;;;;;;5073624;28;19963;-79
2024/01/29 10:56:10;;;;;;;;;;;-2.00;99.90;;;;;;5073934;28;20055;-80
2024/01/29 10:58:40;;;;;;;11.60;5.40;;;-2.00;99.90;;;;;;5058194;28;19912;-78
2024/01/29 11:01:06;;;;;;;14.77;11.93;;;-1.90;99.90;;;;;;5073692;28;20432;-82
2024/01/29 11:03:38;;;;;;;14.27;8.48;;;-1.90;99.90;;;;;;5084151;28;20505;-83
2024/01/29 11:06:28;;;;;;;13.35;9.15;;;-2.00;99.90;;;;;;5071779;28;20546;-81
2024/01/29 11:09:00;;;;;;;12.43;7.05;;;-2.00;99.90;;;;;;5072803;28;20409;-80
2024/01/29 11:11:27;;;;;;;10.55;6.93;;;-2.10;99.90;;;;;;5058709;28;20128;-82
2024/01/29 11:13:54;;;;;;;;;;;-2.10;99.90;;;;;;5073899;28;20508;-81
2024/01/29 11:16:22;;;;;;;11.70;7.68;;;-2.00;99.90;;;;;;5073028;28;20361;-81
2024/01/29 11:18:48;;;;;;;14.20;10.13;;;-2.00;99.90;;;;;;5073849;28;20048;-80
2024/01/29 11:21:14;;;;;;;10.40;6.90;;;-2.00;99.90;;;;;;5073340;28;20021;-82
2024/01/29 11:23:47;;;;;;;26.95;21.17;;;-2.00;99.90;;;;;;5072848;28;20026;-80
2024/01/29 11:26:17;;;;;;;12.23;8.27;;;-2.00;99.90;;;;;;5072765;28;20104;-81
2024/01/29 11:28:43;;;;;;;14.60;9.43;;;-2.00;99.90;;;;;;5067854;28;20028;-84
2024/01/29 11:31:12;;;;;;;14.00;7.45;;;-1.90;99.90;;;;;;5074302;28;20041;-82
2024/01/29 11:33:39;;;;;;;11.52;7.97;;;-1.90;99.90;;;;;;5073404;28;20496;-82
2024/01/29 11:36:12;;;;;;;11.70;8.33;;;-1.90;99.90;;;;;;5079051;28;20028;-83
2024/01/29 11:38:39;;;;;;;14.38;8.45;;;-1.90;99.90;;;;;;5076685;28;20420;-82
2024/01/29 11:41:05;;;;;;;14.18;7.60;;;-1.90;99.90;;;;;;5072246;28;20024;-83
2024/01/29 11:43:34;;;;;;;11.40;8.27;;;-1.80;99.90;;;;;;5080255;28;20031;-81
2024/01/29 11:46:00;;;;;;;10.00;7.35;;;-1.80;99.90;;;;;;5069122;28;20465;-82
2024/01/29 11:48:26;;;;;;;13.48;7.70;;;-1.90;99.90;;;;;;5073156;28;20359;-80
2024/01/29 11:50:53;;;;;;;12.45;8.00;;;-1.90;99.90;;;;;;5070640;28;20154;-80
2024/01/29 11:53:24;;;;;;;10.18;6.53;;;-1.90;99.90;;;;;;5079401;28;20032;-79
2024/01/29 11:55:53;;;;;;;10.45;5.90;;;-1.90;99.90;;;;;;5071793;28;20377;-81
2024/01/29 11:58:21;;;;;;;14.27;6.88;;;-2.00;99.90;;;;;;5077409;28;20025;-80
2024/01/29 12:00:51;;;;;;;13.55;7.00;;;-2.00;99.90;;;;;;5076008;28;20472;-79
2024/01/29 12:03:25;;;;;;;8.63;7.00;;;-2.00;99.90;;;;;;5076886;28;20024;-80
2024/01/29 12:05:52;;;;;;;10.35;7.45;;;-2.10;99.90;;;;;;5072667;28;20039;-79
2024/01/29 12:08:20;;;;;;;12.13;7.40;;;-2.10;99.90;;;;;;5072969;28;20125;-79
2024/01/29 12:10:47;;;;;;;19.02;7.93;;;-2.10;99.90;;;;;;5079876;28;20043;-81
2024/01/29 12:13:14;;;;;;;20.45;9.48;;;-2.00;99.90;;;;;;5081139;28;20051;-82
2024/01/29 12:15:40;;;;;;;12.30;8.05;;;-2.00;99.90;;;;;;5077403;28;20443;-80
2024/01/29 12:18:09;;;;;;;12.30;8.02;;;-2.00;99.90;;;;;;5082302;28;20155;-79
2024/01/29 12:20:37;;;;;;;13.95;8.93;;;-1.90;99.90;;;;;;5080250;28;20020;-81
2024/01/29 12:23:03;;;;;;;13.00;8.45;;;-1.90;99.90;;;;;;5076565;28;20040;-80
2024/01/29 12:25:29;;;;;;;14.63;8.43;;;-1.90;99.90;;;;;;5073822;28;20035;-80
2024/01/29 12:28:03;;;;;;;13.27;7.55;;;-1.90;99.90;;;;;;5087068;28;20264;-80
2024/01/29 12:30:30;;;;;;;16.17;8.82;;;-1.80;99.90;;;;;;5076689;28;20035;-80
2024/01/29 12:32:56;;;;;;;12.95;7.68;;;-1.80;99.90;;;;;;5074588;28;20104;-83
2024/01/29 12:35:28;;;;;;;17.58;10.30;;;-1.80;99.90;;;;;;5085033;28;20060;-80